createdAt,value
2022-11-18T00:01:10.112Z,13.10
2022-11-18T00:03:38.393Z,13.10
2022-11-18T00:06:06.222Z,13.10
2022-11-18T00:08:33.344Z,13.10
2022-11-18T00:11:09.094Z,13.10
2022-11-18T00:13:56.446Z,13.10
2022-11-18T00:16:24.055Z,13.10
2022-11-18T00:18:51.285Z,13.10
2022-11-18T00:21:17.977Z,13.10
2022-11-18T00:23:44.661Z,13.10
2022-11-18T00:26:13.320Z,13.10
2022-11-18T00:28:40.651Z,13.10
2022-11-18T00:31:11.052Z,13.20
2022-11-18T00:33:38.303Z,13.10
2022-11-18T00:36:06.672Z,13.10
2022-11-18T00:38:33.880Z,13.20
2022-11-18T00:41:12.326Z,13.20
2022-11-18T00:43:39.640Z,13.20
2022-11-18T00:46:08.530Z,13.20
2022-11-18T00:48:35.465Z,13.20
2022-11-18T00:51:10.793Z,13.20
2022-11-18T00:53:37.504Z,13.20
2022-11-18T00:56:04.507Z,13.20
2022-11-18T00:58:31.521Z,13.20
2022-11-18T01:00:58.277Z,13.20
2022-11-18T01:03:25.622Z,13.20
2022-11-18T01:05:52.684Z,13.20
2022-11-18T01:08:19.734Z,13.20
2022-11-18T01:10:47.914Z,13.20
2022-11-18T01:13:20.721Z,13.20
2022-11-18T01:15:49.537Z,13.20
2022-11-18T01:18:18.407Z,13.20
2022-11-18T01:20:46.334Z,13.10
2022-11-18T01:23:13.301Z,13.10
2022-11-18T01:25:42.212Z,13.10
2022-11-18T01:28:09.893Z,13.10
2022-11-18T01:30:38.532Z,13.10
2022-11-18T01:33:06.186Z,13.10
2022-11-18T01:35:36.634Z,13.10
2022-11-18T01:38:04.474Z,13.10
2022-11-18T01:40:31.785Z,13.00
2022-11-18T01:42:58.631Z,13.00
2022-11-18T01:45:50.635Z,13.00
2022-11-18T01:48:25.815Z,13.00
2022-11-18T01:50:58.009Z,13.00
2022-11-18T01:53:33.809Z,12.90
2022-11-18T01:56:12.712Z,13.00
2022-11-18T01:58:44.840Z,13.00
2022-11-18T02:01:11.827Z,13.00
2022-11-18T02:03:38.851Z,13.00
2022-11-18T02:06:07.942Z,13.00
2022-11-18T02:08:37.584Z,13.10
2022-11-18T02:11:05.043Z,13.00
2022-11-18T02:13:32.501Z,13.10
2022-11-18T02:16:11.496Z,13.10
2022-11-18T02:19:00.375Z,13.10
2022-11-18T02:21:57.704Z,13.10
2022-11-18T02:24:28.040Z,13.10
2022-11-18T02:27:23.983Z,13.10
2022-11-18T02:30:05.609Z,13.10
2022-11-18T02:32:54.062Z,13.10
2022-11-18T02:35:43.325Z,13.10
2022-11-18T02:38:24.788Z,13.10
2022-11-18T02:41:09.561Z,13.20
2022-11-18T02:43:47.619Z,13.20
2022-11-18T02:46:19.013Z,13.20
2022-11-18T02:48:50.254Z,13.30
2022-11-18T02:51:21.880Z,13.20
2022-11-18T02:53:50.403Z,13.20
2022-11-18T02:56:18.989Z,13.20
2022-11-18T02:58:45.728Z,13.20
2022-11-18T03:01:21.238Z,13.20
2022-11-18T03:03:48.218Z,13.20
2022-11-18T03:06:32.240Z,13.10
2022-11-18T03:09:05.120Z,13.20
2022-11-18T03:11:39.750Z,13.20
2022-11-18T03:14:06.649Z,13.20
2022-11-18T03:16:41.422Z,13.20
2022-11-18T03:19:22.483Z,13.20
2022-11-18T03:22:16.783Z,13.20
2022-11-18T03:25:08.920Z,13.20
2022-11-18T03:28:05.590Z,13.20
2022-11-18T03:30:35.560Z,13.20
2022-11-18T03:33:10.852Z,13.30
2022-11-18T03:35:42.719Z,13.30
2022-11-18T03:38:14.677Z,13.30
2022-11-18T03:40:46.860Z,13.30
2022-11-18T03:43:18.764Z,13.30
2022-11-18T03:45:52.734Z,13.30
2022-11-18T03:48:24.305Z,13.30
2022-11-18T03:51:09.537Z,13.30
2022-11-18T03:53:40.399Z,13.30
2022-11-18T03:56:17.207Z,13.30
2022-11-18T03:59:02.894Z,13.30
2022-11-18T04:01:37.661Z,13.30
2022-11-18T04:04:04.991Z,13.30
2022-11-18T04:06:41.116Z,13.30
2022-11-18T04:09:15.380Z,13.30
2022-11-18T04:12:02.618Z,13.30
2022-11-18T04:14:37.748Z,13.20
2022-11-18T04:17:13.356Z,13.20
2022-11-18T04:19:40.400Z,13.30
2022-11-18T04:22:07.861Z,13.30
2022-11-18T04:24:34.770Z,13.20
2022-11-18T04:27:02.585Z,13.20
2022-11-18T04:29:30.579Z,13.00
2022-11-18T04:31:57.569Z,13.00
2022-11-18T04:34:24.295Z,12.90
2022-11-18T04:36:51.246Z,13.00
2022-11-18T04:39:21.065Z,12.90
2022-11-18T04:41:56.911Z,12.90
2022-11-18T04:44:32.183Z,12.90
2022-11-18T04:47:01.606Z,13.00
2022-11-18T04:49:29.216Z,13.10
2022-11-18T04:51:56.744Z,13.10
2022-11-18T04:54:24.623Z,13.10
2022-11-18T04:56:51.710Z,13.00
2022-11-18T04:59:21.104Z,13.10
2022-11-18T05:01:49.095Z,13.20
2022-11-18T05:04:18.537Z,13.10
2022-11-18T05:06:45.781Z,13.10
2022-11-18T05:09:12.717Z,13.00
2022-11-18T05:11:58.264Z,13.00
2022-11-18T05:14:29.027Z,13.00
2022-11-18T05:16:57.614Z,13.00
2022-11-18T05:19:25.270Z,13.00
2022-11-18T05:21:51.992Z,13.00
2022-11-18T05:24:18.921Z,13.00
2022-11-18T05:26:46.294Z,13.10
2022-11-18T05:29:13.194Z,13.00
2022-11-18T05:31:39.964Z,13.00
2022-11-18T05:34:06.811Z,12.90
2022-11-18T05:36:33.424Z,12.90
2022-11-18T05:39:00.865Z,12.80
2022-11-18T05:41:46.159Z,12.60
2022-11-18T05:44:12.910Z,12.60
2022-11-18T05:46:39.876Z,12.40
2022-11-18T05:49:07.871Z,12.30
2022-11-18T05:51:35.353Z,12.20
2022-11-18T05:54:07.289Z,12.30
2022-11-18T05:56:40.775Z,12.40
2022-11-18T05:59:07.796Z,12.20
2022-11-18T06:01:49.339Z,12.30
2022-11-18T06:04:22.048Z,12.30
2022-11-18T06:06:51.731Z,12.20
2022-11-18T06:09:24.032Z,12.30
2022-11-18T06:11:55.297Z,12.40
2022-11-18T06:14:37.750Z,12.40
2022-11-18T06:17:08.758Z,12.40
2022-11-18T06:19:35.540Z,12.30
2022-11-18T06:22:03.436Z,12.30
2022-11-18T06:24:30.296Z,12.20
2022-11-18T06:26:59.106Z,12.20
2022-11-18T06:29:27.861Z,12.30
2022-11-18T06:31:55.080Z,12.30
2022-11-18T06:34:21.992Z,12.40
2022-11-18T06:36:48.715Z,12.40
2022-11-18T06:39:15.855Z,12.30
2022-11-18T06:41:42.681Z,12.20
2022-11-18T06:44:11.823Z,12.10
2022-11-18T06:46:57.173Z,12.10
2022-11-18T06:49:28.138Z,12.10
2022-11-18T06:51:55.177Z,12.10
2022-11-18T06:54:22.575Z,12.10
2022-11-18T06:56:49.459Z,12.30
2022-11-18T06:59:22.150Z,12.50
2022-11-18T07:01:49.217Z,12.30
2022-11-18T07:04:16.034Z,12.10
2022-11-18T07:06:42.753Z,12.10
2022-11-18T07:09:09.704Z,12.00
2022-11-18T07:11:38.220Z,12.00
2022-11-18T07:14:04.892Z,12.10
2022-11-18T07:16:31.631Z,12.30
2022-11-18T07:18:58.384Z,12.40
2022-11-18T07:21:28.118Z,12.40
2022-11-18T07:23:56.151Z,12.40
2022-11-18T07:26:23.067Z,12.50
2022-11-18T07:28:49.853Z,12.50
2022-11-18T07:31:19.600Z,12.40
2022-11-18T07:33:47.656Z,12.40
2022-11-18T07:36:20.064Z,12.50
2022-11-18T07:38:47.638Z,12.50
2022-11-18T07:41:17.672Z,12.50
2022-11-18T07:43:44.976Z,12.30
2022-11-18T07:46:20.552Z,12.30
2022-11-18T07:48:48.133Z,12.20
2022-11-18T07:51:16.385Z,12.20
2022-11-18T07:53:43.764Z,12.20
2022-11-18T07:56:11.161Z,12.20
2022-11-18T07:58:37.972Z,12.30
2022-11-18T08:01:14.207Z,12.30
2022-11-18T08:03:41.480Z,12.30
2022-11-18T08:06:09.654Z,12.30
2022-11-18T08:08:36.926Z,12.40
2022-11-18T08:11:06.585Z,12.30
2022-11-18T08:13:33.914Z,12.30
2022-11-18T08:16:01.092Z,12.30
2022-11-18T08:18:32.450Z,12.20
2022-11-18T08:21:05.864Z,12.20
2022-11-18T08:23:37.395Z,12.20
2022-11-18T08:26:08.714Z,12.10
2022-11-18T08:28:35.794Z,12.10
2022-11-18T08:31:17.347Z,12.20
2022-11-18T08:33:44.457Z,12.30
2022-11-18T08:36:18.374Z,12.40
2022-11-18T08:38:45.503Z,12.40
2022-11-18T08:41:18.913Z,12.50
2022-11-18T08:43:45.721Z,12.40
2022-11-18T08:46:12.496Z,12.50
2022-11-18T08:48:39.214Z,12.50
2022-11-18T08:51:06.406Z,12.70
2022-11-18T08:53:33.393Z,12.90
2022-11-18T08:56:01.255Z,12.90
2022-11-18T08:58:28.492Z,12.80
2022-11-18T09:00:55.304Z,12.80
2022-11-18T09:03:22.202Z,12.80
2022-11-18T09:05:50.062Z,12.70
2022-11-18T09:08:17.069Z,12.50
2022-11-18T09:10:43.804Z,12.50
2022-11-18T09:13:40.295Z,12.50
2022-11-18T09:16:00.861Z,12.50
2022-11-18T09:18:28.031Z,12.40
2022-11-18T09:21:00.045Z,12.30
2022-11-18T09:23:27.423Z,12.30
2022-11-18T09:26:06.052Z,12.50
2022-11-18T09:28:33.564Z,12.60
2022-11-18T09:31:08.349Z,12.60
2022-11-18T09:33:36.732Z,12.90
2022-11-18T09:36:04.624Z,13.10
2022-11-18T09:38:32.488Z,13.40
2022-11-18T09:41:15.926Z,13.30
2022-11-18T09:44:06.487Z,13.50
2022-11-18T09:46:57.571Z,13.60
2022-11-18T09:49:37.183Z,13.70
2022-11-18T09:52:29.178Z,13.80
2022-11-18T09:55:00.404Z,13.70
2022-11-18T09:57:38.702Z,13.70
2022-11-18T10:00:22.365Z,13.70
2022-11-18T10:02:58.378Z,13.80
2022-11-18T10:05:28.436Z,13.90
2022-11-18T10:08:02.138Z,14.20
2022-11-18T10:10:38.092Z,14.10
2022-11-18T10:13:17.651Z,14.00
2022-11-18T10:16:00.333Z,13.90
2022-11-18T10:19:08.676Z,13.80
2022-11-18T10:21:47.394Z,13.80
2022-11-18T10:24:21.012Z,13.90
2022-11-18T10:26:54.410Z,13.90
2022-11-18T10:29:21.985Z,13.80
2022-11-18T10:32:05.621Z,13.90
2022-11-18T10:34:34.099Z,13.80
2022-11-18T10:37:02.912Z,14.00
2022-11-18T10:39:30.409Z,13.90
2022-11-18T10:42:07.519Z,14.20
2022-11-18T10:44:40.336Z,14.30
2022-11-18T10:47:26.196Z,14.30
2022-11-18T10:49:55.393Z,14.40
2022-11-18T10:52:22.287Z,14.50
2022-11-18T10:55:11.856Z,14.60
2022-11-18T10:57:43.528Z,14.90
2022-11-18T11:00:34.296Z,15.00
2022-11-18T11:03:14.257Z,15.60
2022-11-18T11:05:41.108Z,19.20
2022-11-18T11:08:36.363Z,23.80
2022-11-18T11:11:04.337Z,27.10
2022-11-18T11:13:32.438Z,29.30
2022-11-18T11:16:03.388Z,30.30
2022-11-18T11:18:43.461Z,32.40
2022-11-18T11:21:20.017Z,33.60
2022-11-18T11:23:47.108Z,34.30
2022-11-18T11:29:27.689Z,33.90
2022-11-18T11:32:28.722Z,34.70
2022-11-18T11:35:13.752Z,34.50
2022-11-18T11:37:58.220Z,33.50
2022-11-18T11:41:02.712Z,33.50
2022-11-18T11:43:39.473Z,34.50
2022-11-18T11:46:18.758Z,35.10
2022-11-18T11:49:32.791Z,35.30
2022-11-18T11:52:41.404Z,36.40
2022-11-18T11:55:28.378Z,36.60
2022-11-18T11:58:18.145Z,37.00
2022-11-18T12:00:56.143Z,37.10
2022-11-18T12:03:51.626Z,36.20
2022-11-18T12:06:19.254Z,35.90
2022-11-18T12:08:59.276Z,37.20
2022-11-18T12:11:46.728Z,38.40
2022-11-18T12:14:22.159Z,38.30
2022-11-18T12:17:19.157Z,38.50
2022-11-18T12:19:45.940Z,38.20
2022-11-18T12:22:12.714Z,38.20
2022-11-18T12:24:42.406Z,38.10
2022-11-18T12:27:14.059Z,38.40
2022-11-18T12:29:55.230Z,38.40
2022-11-18T12:32:45.325Z,38.80
2022-11-18T12:35:11.999Z,38.50
2022-11-18T12:38:04.910Z,38.40
2022-11-18T12:40:34.312Z,38.80
2022-11-18T12:43:22.364Z,39.00
2022-11-18T12:45:51.343Z,38.70
2022-11-18T12:48:27.277Z,38.60
2022-11-18T12:51:00.716Z,38.80
2022-11-18T12:53:38.605Z,38.50
2022-11-18T12:56:17.566Z,37.00
2022-11-18T12:58:48.029Z,35.80
2022-11-18T13:01:18.165Z,36.20
2022-11-18T13:03:45.325Z,36.80
2022-11-18T13:06:20.615Z,36.70
2022-11-18T13:08:57.891Z,37.10
2022-11-18T13:11:44.944Z,37.50
2022-11-18T13:14:37.051Z,36.70
2022-11-18T13:17:51.925Z,37.20
2022-11-18T13:20:23.348Z,37.70
2022-11-18T13:23:21.148Z,37.50
2022-11-18T13:25:49.521Z,36.70
2022-11-18T13:28:43.009Z,36.70
2022-11-18T13:31:44.085Z,36.20
2022-11-18T13:34:25.586Z,36.00
2022-11-18T13:36:54.037Z,35.70
2022-11-18T13:39:32.956Z,35.90
2022-11-18T13:42:05.559Z,36.00
2022-11-18T13:44:35.260Z,35.90
2022-11-18T13:47:23.725Z,36.10
2022-11-18T13:50:10.768Z,36.20
2022-11-18T13:52:45.093Z,35.90
2022-11-18T13:55:25.197Z,35.80
2022-11-18T13:58:00.515Z,35.90
2022-11-18T14:00:30.175Z,35.40
2022-11-18T14:03:02.022Z,35.00
2022-11-18T14:05:28.970Z,34.80
2022-11-18T14:08:06.355Z,34.90
2022-11-18T14:10:44.946Z,34.60
2022-11-18T14:13:33.250Z,34.10
2022-11-18T14:16:02.685Z,31.30
2022-11-18T14:18:33.756Z,28.50
2022-11-18T14:21:02.470Z,26.20
2022-11-18T14:23:32.030Z,24.50
2022-11-18T14:26:00.606Z,23.30
2022-11-18T14:28:30.582Z,22.00
2022-11-18T14:31:17.246Z,20.70
2022-11-18T14:34:21.910Z,20.60
2022-11-18T14:36:50.678Z,20.30
2022-11-18T14:39:32.513Z,19.90
2022-11-18T14:42:00.192Z,19.90
2022-11-18T14:44:27.816Z,19.70
2022-11-18T14:47:01.949Z,19.50
2022-11-18T14:49:31.460Z,19.40
2022-11-18T14:51:59.164Z,19.10
2022-11-18T14:54:28.116Z,18.90
2022-11-18T14:57:00.072Z,18.90
2022-11-18T14:59:27.489Z,18.90
2022-11-18T15:01:54.850Z,18.90
2022-11-18T15:04:22.053Z,18.80
2022-11-18T15:06:49.381Z,18.80
2022-11-18T15:09:16.485Z,18.80
2022-11-18T15:11:43.252Z,18.70
2022-11-18T15:14:09.961Z,18.40
2022-11-18T15:16:36.701Z,18.40
2022-11-18T15:19:05.530Z,18.30
2022-11-18T15:21:33.032Z,18.10
2022-11-18T15:23:59.883Z,17.90
2022-11-18T15:26:28.847Z,17.70
2022-11-18T15:28:57.055Z,17.50
2022-11-18T15:31:25.009Z,17.60
2022-11-18T15:33:51.945Z,17.50
2022-11-18T15:36:24.295Z,17.40
2022-11-18T15:38:52.208Z,17.40
2022-11-18T15:41:23.126Z,17.30
2022-11-18T15:43:51.250Z,17.20
2022-11-18T15:46:19.893Z,17.10
2022-11-18T15:48:48.361Z,17.00
2022-11-18T15:51:15.481Z,17.10
2022-11-18T15:53:42.206Z,17.00
2022-11-18T15:56:18.569Z,17.10
2022-11-18T15:58:51.459Z,17.20
2022-11-18T16:01:19.196Z,17.20
2022-11-18T16:03:45.926Z,16.90
2022-11-18T16:06:12.650Z,16.90
2022-11-18T16:08:39.446Z,16.70
2022-11-18T16:11:24.565Z,16.60
2022-11-18T16:13:51.420Z,16.50
2022-11-18T16:16:23.214Z,16.60
2022-11-18T16:18:49.950Z,16.50
2022-11-18T16:21:16.709Z,16.40
2022-11-18T16:23:43.447Z,16.30
2022-11-18T16:26:10.062Z,16.30
2022-11-18T16:28:36.716Z,16.30
2022-11-18T16:31:22.123Z,16.30
2022-11-18T16:33:48.822Z,16.20
2022-11-18T16:36:15.655Z,16.10
2022-11-18T16:38:43.003Z,16.20
2022-11-18T16:41:28.891Z,16.20
2022-11-18T16:43:55.869Z,16.10
2022-11-18T16:46:22.576Z,16.20
2022-11-18T16:48:49.574Z,16.30
2022-11-18T16:51:17.124Z,16.30
2022-11-18T16:53:44.017Z,16.30
2022-11-18T16:56:10.727Z,16.40
2022-11-18T16:58:37.327Z,16.30
2022-11-18T17:01:23.454Z,16.20
2022-11-18T17:03:54.286Z,16.20
2022-11-18T17:06:25.030Z,16.20
2022-11-18T17:08:52.208Z,16.10
2022-11-18T17:11:19.458Z,16.00
2022-11-18T17:13:46.500Z,16.00
2022-11-18T17:16:16.021Z,16.00
2022-11-18T17:18:43.542Z,16.00
2022-11-18T17:21:12.780Z,16.10
2022-11-18T17:23:40.893Z,16.10
2022-11-18T17:26:08.665Z,16.10
2022-11-18T17:28:36.738Z,16.10
2022-11-18T17:31:08.348Z,16.00
2022-11-18T17:33:35.345Z,16.00
2022-11-18T17:36:06.251Z,15.90
2022-11-18T17:38:35.496Z,16.00
2022-11-18T17:41:02.227Z,15.90
2022-11-18T17:43:29.197Z,15.90
2022-11-18T17:45:58.138Z,15.80
2022-11-18T17:48:26.805Z,15.80
2022-11-18T17:50:53.958Z,15.70
2022-11-18T17:53:21.042Z,15.70
2022-11-18T17:55:47.831Z,15.60
2022-11-18T17:58:14.825Z,15.60
2022-11-18T18:00:41.562Z,15.60
2022-11-18T18:03:08.334Z,15.60
2022-11-18T18:05:35.078Z,15.60
2022-11-18T18:08:04.358Z,15.70
2022-11-18T18:10:31.334Z,15.70
2022-11-18T18:13:16.676Z,15.70
2022-11-18T18:15:43.421Z,15.60
2022-11-18T18:18:10.114Z,15.50
2022-11-18T18:20:36.835Z,15.50
2022-11-18T18:23:03.552Z,15.50
2022-11-18T18:25:30.471Z,15.50
2022-11-18T18:27:57.288Z,15.50
2022-11-18T18:30:24.039Z,15.40
2022-11-18T18:32:52.597Z,15.40
2022-11-18T18:35:19.486Z,15.50
2022-11-18T18:37:46.234Z,15.40
2022-11-18T18:40:13.754Z,15.40
2022-11-18T18:42:40.616Z,15.40
2022-11-18T18:45:27.251Z,15.50
2022-11-18T18:47:54.149Z,15.40
2022-11-18T18:50:25.061Z,15.40
2022-11-18T18:52:55.053Z,15.30
2022-11-18T18:55:22.027Z,15.30
2022-11-18T18:57:48.719Z,15.30
2022-11-18T19:00:15.730Z,15.30
2022-11-18T19:02:42.490Z,15.30
2022-11-18T19:05:09.344Z,15.30
2022-11-18T19:07:36.020Z,15.30
2022-11-18T19:10:05.625Z,15.20
2022-11-18T19:12:44.330Z,15.10
2022-11-18T19:15:11.777Z,15.10
2022-11-18T19:17:38.809Z,15.10
2022-11-18T19:20:25.033Z,15.00
2022-11-18T19:22:52.182Z,15.00
2022-11-18T19:25:18.941Z,15.00
2022-11-18T19:27:45.647Z,15.00
2022-11-18T19:30:13.356Z,15.00
2022-11-18T19:32:41.527Z,15.00
2022-11-18T19:35:09.684Z,15.00
2022-11-18T19:37:37.245Z,14.90
2022-11-18T19:40:08.898Z,15.00
2022-11-18T19:42:37.770Z,15.00
2022-11-18T19:45:05.627Z,14.90
2022-11-18T19:47:32.698Z,15.00
2022-11-18T19:49:59.822Z,15.00
2022-11-18T19:52:26.530Z,15.00
2022-11-18T19:54:53.352Z,14.90
2022-11-18T19:57:20.276Z,14.80
2022-11-18T19:59:46.929Z,14.80
2022-11-18T20:02:13.765Z,14.80
2022-11-18T20:04:40.571Z,14.70
2022-11-18T20:07:07.698Z,14.60
2022-11-18T20:09:34.428Z,14.60
2022-11-18T20:12:01.169Z,14.60
2022-11-18T20:14:27.886Z,14.50
2022-11-18T20:16:54.640Z,14.40
2022-11-18T20:19:21.558Z,14.40
2022-11-18T20:21:49.334Z,14.40
2022-11-18T20:24:17.754Z,14.30
2022-11-18T20:26:44.965Z,14.30
2022-11-18T20:29:12.353Z,14.20
2022-11-18T20:31:39.135Z,14.20
2022-11-18T20:34:06.112Z,14.20
2022-11-18T20:36:35.724Z,14.10
2022-11-18T20:39:07.148Z,14.10
2022-11-18T20:41:34.976Z,14.10
2022-11-18T20:44:01.790Z,14.10
2022-11-18T20:46:28.952Z,14.20
2022-11-18T20:48:55.767Z,14.20
2022-11-18T20:51:24.926Z,14.20
2022-11-18T20:53:53.345Z,14.20
2022-11-18T20:56:22.501Z,14.20
2022-11-18T20:58:49.875Z,14.10
2022-11-18T21:01:25.510Z,14.10
2022-11-18T21:03:53.283Z,14.10
2022-11-18T21:06:22.211Z,14.00
2022-11-18T21:08:49.254Z,14.00
2022-11-18T21:11:16.384Z,13.80
2022-11-18T21:14:01.731Z,13.70
2022-11-18T21:16:28.518Z,13.50
2022-11-18T21:18:55.253Z,13.30
2022-11-18T21:21:40.862Z,13.30
2022-11-18T21:24:08.392Z,13.20
2022-11-18T21:26:36.177Z,13.00
2022-11-18T21:29:05.141Z,13.00
2022-11-18T21:31:32.305Z,13.00
2022-11-18T21:33:59.326Z,12.90
2022-11-18T21:36:27.684Z,12.70
2022-11-18T21:38:56.347Z,12.80
2022-11-18T21:41:23.041Z,12.60
2022-11-18T21:44:05.108Z,12.60
2022-11-18T21:46:34.164Z,12.60
2022-11-18T21:49:00.969Z,12.60
2022-11-18T21:51:28.097Z,12.40
2022-11-18T21:53:54.849Z,12.20
2022-11-18T21:56:24.951Z,12.30
2022-11-18T21:58:52.676Z,12.40
2022-11-18T22:01:23.337Z,12.10
2022-11-18T22:03:55.597Z,12.10
2022-11-18T22:06:24.495Z,12.10
2022-11-18T22:08:52.319Z,12.20
2022-11-18T22:11:22.773Z,12.10
2022-11-18T22:13:51.760Z,12.20
2022-11-18T22:16:20.690Z,12.20
2022-11-18T22:18:54.712Z,12.30
2022-11-18T22:21:23.133Z,12.20
2022-11-18T22:23:50.034Z,12.00
2022-11-18T22:26:19.377Z,12.10
2022-11-18T22:28:47.339Z,12.00
2022-11-18T22:31:22.259Z,12.00
2022-11-18T22:33:50.286Z,11.80
2022-11-18T22:36:19.780Z,11.80
2022-11-18T22:38:46.854Z,11.70
2022-11-18T22:41:36.891Z,11.80
2022-11-18T22:44:07.792Z,11.90
2022-11-18T22:46:39.719Z,11.60
2022-11-18T22:49:09.484Z,11.50
2022-11-18T22:51:37.647Z,11.60
2022-11-18T22:54:36.377Z,11.50
2022-11-18T22:56:54.211Z,11.50
2022-11-18T22:59:21.561Z,11.60
2022-11-18T23:01:51.110Z,11.90
2022-11-18T23:04:17.934Z,11.60
2022-11-18T23:06:44.582Z,11.50
2022-11-18T23:09:11.548Z,11.40
2022-11-18T23:11:56.987Z,11.40
2022-11-18T23:14:23.827Z,11.30
2022-11-18T23:16:50.587Z,11.40
2022-11-18T23:19:18.315Z,11.40
2022-11-18T23:21:45.792Z,11.30
2022-11-18T23:24:14.390Z,11.40
2022-11-18T23:26:42.226Z,11.30
2022-11-18T23:29:10.435Z,11.50
2022-11-18T23:31:40.038Z,11.50
2022-11-18T23:34:06.967Z,11.60
2022-11-18T23:36:33.669Z,11.60
2022-11-18T23:39:00.342Z,11.60
2022-11-18T23:41:27.216Z,11.50
2022-11-18T23:43:54.176Z,11.40
2022-11-18T23:46:21.739Z,11.40
2022-11-18T23:48:48.935Z,11.20
2022-11-18T23:51:17.928Z,11.20
2022-11-18T23:53:45.877Z,11.10
2022-11-18T23:56:18.055Z,11.20
2022-11-18T23:58:47.205Z,11.10
